sensor_id;sensor_type;location;lat;lon;timestamp;P1;durP1;ratioP1;P2;durP2;ratioP2
63379;SDS011;53160;55.014;73.156;2022-10-16T00:01:37;25.40;;;22.20;;
63379;SDS011;53160;55.014;73.156;2022-10-16T00:04:04;28.00;;;26.00;;
63379;SDS011;53160;55.014;73.156;2022-10-16T00:06:30;30.40;;;28.60;;
63379;SDS011;53160;55.014;73.156;2022-10-16T00:08:57;29.80;;;27.20;;
63379;SDS011;53160;55.014;73.156;2022-10-16T00:11:25;35.00;;;31.60;;
63379;SDS011;53160;55.014;73.156;2022-10-16T00:13:54;43.20;;;38.00;;
63379;SDS011;53160;55.014;73.156;2022-10-16T00:16:20;35.80;;;32.20;;
63379;SDS011;53160;55.014;73.156;2022-10-16T00:18:46;33.00;;;30.00;;
63379;SDS011;53160;55.014;73.156;2022-10-16T00:21:14;37.00;;;32.60;;
63379;SDS011;53160;55.014;73.156;2022-10-16T00:23:52;34.60;;;32.40;;
63379;SDS011;53160;55.014;73.156;2022-10-16T00:26:18;41.80;;;36.20;;
63379;SDS011;53160;55.014;73.156;2022-10-16T00:28:48;40.80;;;35.00;;
63379;SDS011;53160;55.014;73.156;2022-10-16T00:31:15;26.60;;;25.00;;
63379;SDS011;53160;55.014;73.156;2022-10-16T00:33:42;15.60;;;13.60;;
63379;SDS011;53160;55.014;73.156;2022-10-16T00:36:09;36.00;;;31.00;;
63379;SDS011;53160;55.014;73.156;2022-10-16T00:38:36;37.00;;;33.60;;
63379;SDS011;53160;55.014;73.156;2022-10-16T00:41:03;39.00;;;34.80;;
63379;SDS011;53160;55.014;73.156;2022-10-16T00:45:59;31.80;;;30.60;;
63379;SDS011;53160;55.014;73.156;2022-10-16T00:48:26;37.40;;;34.20;;
63379;SDS011;53160;55.014;73.156;2022-10-16T00:50:52;40.80;;;35.20;;
63379;SDS011;53160;55.014;73.156;2022-10-16T00:53:19;43.20;;;34.80;;
63379;SDS011;53160;55.014;73.156;2022-10-16T00:55:45;51.60;;;41.80;;
63379;SDS011;53160;55.014;73.156;2022-10-16T00:58:11;57.60;;;47.20;;
63379;SDS011;53160;55.014;73.156;2022-10-16T01:00:48;62.00;;;48.80;;
63379;SDS011;53160;55.014;73.156;2022-10-16T01:03:24;69.40;;;53.00;;
63379;SDS011;53160;55.014;73.156;2022-10-16T01:08:29;56.00;;;45.00;;
63379;SDS011;53160;55.014;73.156;2022-10-16T01:11:00;50.80;;;43.00;;
63379;SDS011;53160;55.014;73.156;2022-10-16T01:13:33;60.80;;;48.80;;
63379;SDS011;53160;55.014;73.156;2022-10-16T01:16:07;61.60;;;50.00;;
63379;SDS011;53160;55.014;73.156;2022-10-16T01:18:40;75.60;;;59.60;;
63379;SDS011;53160;55.014;73.156;2022-10-16T01:21:09;69.00;;;54.80;;
63379;SDS011;53160;55.014;73.156;2022-10-16T01:26:14;45.20;;;37.60;;
63379;SDS011;53160;55.014;73.156;2022-10-16T01:31:31;40.60;;;37.00;;
63379;SDS011;53160;55.014;73.156;2022-10-16T01:34:13;45.60;;;37.60;;
63379;SDS011;53160;55.014;73.156;2022-10-16T01:36:41;37.80;;;33.00;;
63379;SDS011;53160;55.014;73.156;2022-10-16T01:39:11;45.20;;;36.60;;
63379;SDS011;53160;55.014;73.156;2022-10-16T01:41:38;44.00;;;38.20;;
63379;SDS011;53160;55.014;73.156;2022-10-16T01:44:14;51.20;;;43.00;;
63379;SDS011;53160;55.014;73.156;2022-10-16T01:46:43;45.60;;;39.20;;
63379;SDS011;53160;55.014;73.156;2022-10-16T01:49:10;43.60;;;38.00;;
63379;SDS011;53160;55.014;73.156;2022-10-16T01:51:37;47.20;;;39.60;;
63379;SDS011;53160;55.014;73.156;2022-10-16T01:54:04;38.80;;;35.60;;
63379;SDS011;53160;55.014;73.156;2022-10-16T01:56:32;40.00;;;35.80;;
63379;SDS011;53160;55.014;73.156;2022-10-16T01:59:11;55.80;;;43.40;;
63379;SDS011;53160;55.014;73.156;2022-10-16T02:01:39;49.40;;;41.40;;
63379;SDS011;53160;55.014;73.156;2022-10-16T02:04:18;28.60;;;24.40;;
63379;SDS011;53160;55.014;73.156;2022-10-16T02:06:46;40.20;;;35.80;;
63379;SDS011;53160;55.014;73.156;2022-10-16T02:09:21;43.20;;;36.80;;
63379;SDS011;53160;55.014;73.156;2022-10-16T02:11:47;39.00;;;35.00;;
63379;SDS011;53160;55.014;73.156;2022-10-16T02:14:15;40.60;;;33.80;;
63379;SDS011;53160;55.014;73.156;2022-10-16T02:16:42;50.40;;;39.60;;
63379;SDS011;53160;55.014;73.156;2022-10-16T02:19:14;40.00;;;35.60;;
63379;SDS011;53160;55.014;73.156;2022-10-16T02:21:53;47.60;;;39.80;;
63379;SDS011;53160;55.014;73.156;2022-10-16T02:26:57;41.40;;;37.60;;
63379;SDS011;53160;55.014;73.156;2022-10-16T02:29:25;44.40;;;37.60;;
63379;SDS011;53160;55.014;73.156;2022-10-16T02:31:57;47.40;;;38.60;;
63379;SDS011;53160;55.014;73.156;2022-10-16T02:34:25;39.60;;;35.00;;
63379;SDS011;53160;55.014;73.156;2022-10-16T02:36:52;43.20;;;36.40;;
63379;SDS011;53160;55.014;73.156;2022-10-16T02:39:19;52.20;;;44.80;;
63379;SDS011;53160;55.014;73.156;2022-10-16T02:41:46;42.60;;;36.20;;
63379;SDS011;53160;55.014;73.156;2022-10-16T02:44:12;39.80;;;36.00;;
63379;SDS011;53160;55.014;73.156;2022-10-16T02:46:49;35.00;;;33.40;;
63379;SDS011;53160;55.014;73.156;2022-10-16T02:49:15;37.40;;;34.00;;
63379;SDS011;53160;55.014;73.156;2022-10-16T02:51:41;39.60;;;36.00;;
63379;SDS011;53160;55.014;73.156;2022-10-16T02:54:07;39.80;;;37.20;;
63379;SDS011;53160;55.014;73.156;2022-10-16T02:56:33;39.60;;;35.80;;
63379;SDS011;53160;55.014;73.156;2022-10-16T02:59:06;32.80;;;30.40;;
63379;SDS011;53160;55.014;73.156;2022-10-16T03:01:42;43.80;;;37.00;;
63379;SDS011;53160;55.014;73.156;2022-10-16T03:04:09;39.60;;;36.00;;
63379;SDS011;53160;55.014;73.156;2022-10-16T03:06:36;34.40;;;33.40;;
63379;SDS011;53160;55.014;73.156;2022-10-16T03:09:02;29.60;;;28.40;;
63379;SDS011;53160;55.014;73.156;2022-10-16T03:11:39;35.80;;;33.00;;
63379;SDS011;53160;55.014;73.156;2022-10-16T03:14:05;48.40;;;38.20;;
63379;SDS011;53160;55.014;73.156;2022-10-16T03:16:31;45.20;;;38.40;;
63379;SDS011;53160;55.014;73.156;2022-10-16T03:18:57;42.40;;;35.80;;
63379;SDS011;53160;55.014;73.156;2022-10-16T03:21:28;51.20;;;41.40;;
63379;SDS011;53160;55.014;73.156;2022-10-16T03:23:55;38.60;;;36.00;;
63379;SDS011;53160;55.014;73.156;2022-10-16T03:26:21;58.80;;;46.80;;
63379;SDS011;53160;55.014;73.156;2022-10-16T03:28:47;67.00;;;52.60;;
63379;SDS011;53160;55.014;73.156;2022-10-16T03:31:22;64.40;;;49.40;;
63379;SDS011;53160;55.014;73.156;2022-10-16T03:33:49;70.40;;;54.00;;
63379;SDS011;53160;55.014;73.156;2022-10-16T03:36:16;75.00;;;54.80;;
63379;SDS011;53160;55.014;73.156;2022-10-16T03:38:43;76.00;;;55.20;;
63379;SDS011;53160;55.014;73.156;2022-10-16T03:41:09;63.80;;;49.80;;
63379;SDS011;53160;55.014;73.156;2022-10-16T03:43:35;66.80;;;52.80;;
63379;SDS011;53160;55.014;73.156;2022-10-16T03:46:01;56.00;;;46.20;;
63379;SDS011;53160;55.014;73.156;2022-10-16T03:48:28;50.60;;;43.00;;
63379;SDS011;53160;55.014;73.156;2022-10-16T03:50:54;51.20;;;43.00;;
63379;SDS011;53160;55.014;73.156;2022-10-16T03:53:30;55.40;;;46.80;;
63379;SDS011;53160;55.014;73.156;2022-10-16T03:55:57;61.40;;;47.60;;
63379;SDS011;53160;55.014;73.156;2022-10-16T03:58:23;59.20;;;47.60;;
63379;SDS011;53160;55.014;73.156;2022-10-16T04:00:50;60.20;;;48.80;;
63379;SDS011;53160;55.014;73.156;2022-10-16T04:03:16;59.00;;;48.80;;
63379;SDS011;53160;55.014;73.156;2022-10-16T04:05:43;48.60;;;42.00;;
63379;SDS011;53160;55.014;73.156;2022-10-16T04:08:09;61.20;;;48.80;;
63379;SDS011;53160;55.014;73.156;2022-10-16T04:10:35;51.80;;;44.00;;
63379;SDS011;53160;55.014;73.156;2022-10-16T04:13:01;60.20;;;49.00;;
63379;SDS011;53160;55.014;73.156;2022-10-16T04:15:27;49.80;;;41.60;;
63379;SDS011;53160;55.014;73.156;2022-10-16T04:18:03;52.60;;;41.00;;
63379;SDS011;53160;55.014;73.156;2022-10-16T04:20:29;54.20;;;45.60;;
63379;SDS011;53160;55.014;73.156;2022-10-16T04:22:55;53.40;;;43.40;;
63379;SDS011;53160;55.014;73.156;2022-10-16T04:25:23;50.60;;;40.60;;
63379;SDS011;53160;55.014;73.156;2022-10-16T04:27:49;39.20;;;34.60;;
63379;SDS011;53160;55.014;73.156;2022-10-16T04:30:15;50.00;;;42.20;;
63379;SDS011;53160;55.014;73.156;2022-10-16T04:32:42;47.00;;;38.40;;
63379;SDS011;53160;55.014;73.156;2022-10-16T04:35:09;52.80;;;43.00;;
63379;SDS011;53160;55.014;73.156;2022-10-16T04:37:39;52.60;;;43.20;;
63379;SDS011;53160;55.014;73.156;2022-10-16T04:40:05;55.80;;;44.80;;
63379;SDS011;53160;55.014;73.156;2022-10-16T04:42:41;48.00;;;39.20;;
63379;SDS011;53160;55.014;73.156;2022-10-16T04:45:07;53.40;;;42.20;;
63379;SDS011;53160;55.014;73.156;2022-10-16T04:47:34;52.60;;;43.60;;
63379;SDS011;53160;55.014;73.156;2022-10-16T04:50:10;40.80;;;36.20;;
63379;SDS011;53160;55.014;73.156;2022-10-16T04:52:36;50.80;;;42.20;;
63379;SDS011;53160;55.014;73.156;2022-10-16T04:55:02;53.80;;;42.80;;
63379;SDS011;53160;55.014;73.156;2022-10-16T04:57:33;51.60;;;42.40;;
63379;SDS011;53160;55.014;73.156;2022-10-16T05:00:00;41.20;;;36.80;;
63379;SDS011;53160;55.014;73.156;2022-10-16T05:02:26;48.80;;;40.80;;
63379;SDS011;53160;55.014;73.156;2022-10-16T05:04:54;44.20;;;35.80;;
63379;SDS011;53160;55.014;73.156;2022-10-16T05:07:20;51.00;;;41.80;;
63379;SDS011;53160;55.014;73.156;2022-10-16T05:09:47;38.60;;;34.00;;
63379;SDS011;53160;55.014;73.156;2022-10-16T05:12:19;47.60;;;38.80;;
63379;SDS011;53160;55.014;73.156;2022-10-16T05:14:45;61.60;;;48.80;;
63379;SDS011;53160;55.014;73.156;2022-10-16T05:17:20;45.20;;;37.40;;
63379;SDS011;53160;55.014;73.156;2022-10-16T05:19:46;42.40;;;36.00;;
63379;SDS011;53160;55.014;73.156;2022-10-16T05:22:12;46.40;;;37.00;;
63379;SDS011;53160;55.014;73.156;2022-10-16T05:24:38;47.00;;;38.80;;
63379;SDS011;53160;55.014;73.156;2022-10-16T05:27:04;45.80;;;38.80;;
63379;SDS011;53160;55.014;73.156;2022-10-16T05:29:30;45.80;;;38.00;;
63379;SDS011;53160;55.014;73.156;2022-10-16T05:31:57;37.00;;;33.80;;
63379;SDS011;53160;55.014;73.156;2022-10-16T05:34:23;35.00;;;31.80;;
63379;SDS011;53160;55.014;73.156;2022-10-16T05:36:58;33.40;;;31.40;;
63379;SDS011;53160;55.014;73.156;2022-10-16T05:39:25;38.40;;;33.20;;
63379;SDS011;53160;55.014;73.156;2022-10-16T05:41:51;33.80;;;31.60;;
63379;SDS011;53160;55.014;73.156;2022-10-16T05:44:25;40.60;;;35.00;;
63379;SDS011;53160;55.014;73.156;2022-10-16T05:46:51;23.80;;;22.60;;
63379;SDS011;53160;55.014;73.156;2022-10-16T05:49:17;17.60;;;13.60;;
63379;SDS011;53160;55.014;73.156;2022-10-16T05:51:43;27.40;;;25.60;;
63379;SDS011;53160;55.014;73.156;2022-10-16T05:54:09;18.00;;;16.40;;
63379;SDS011;53160;55.014;73.156;2022-10-16T05:56:35;18.40;;;18.00;;
63379;SDS011;53160;55.014;73.156;2022-10-16T05:59:03;16.40;;;16.40;;
63379;SDS011;53160;55.014;73.156;2022-10-16T06:01:35;17.75;;;17.00;;
63379;SDS011;53160;55.014;73.156;2022-10-16T06:04:01;19.50;;;17.50;;
63379;SDS011;53160;55.014;73.156;2022-10-16T06:06:28;19.00;;;17.20;;
63379;SDS011;53160;55.014;73.156;2022-10-16T06:08:55;17.50;;;17.25;;
63379;SDS011;53160;55.014;73.156;2022-10-16T06:11:23;16.20;;;14.40;;
63379;SDS011;53160;55.014;73.156;2022-10-16T06:13:50;17.80;;;16.60;;
63379;SDS011;53160;55.014;73.156;2022-10-16T06:16:22;16.75;;;16.25;;
63379;SDS011;53160;55.014;73.156;2022-10-16T06:18:50;20.50;;;17.50;;
63379;SDS011;53160;55.014;73.156;2022-10-16T06:21:23;17.50;;;17.00;;
63379;SDS011;53160;55.014;73.156;2022-10-16T06:23:53;17.75;;;17.50;;
63379;SDS011;53160;55.014;73.156;2022-10-16T06:26:21;17.00;;;15.25;;
63379;SDS011;53160;55.014;73.156;2022-10-16T06:28:48;15.50;;;13.50;;
63379;SDS011;53160;55.014;73.156;2022-10-16T06:31:16;13.00;;;12.00;;
63379;SDS011;53160;55.014;73.156;2022-10-16T06:33:50;10.00;;;10.00;;
63379;SDS011;53160;55.014;73.156;2022-10-16T06:36:17;11.50;;;9.75;;
63379;SDS011;53160;55.014;73.156;2022-10-16T06:38:44;11.00;;;9.75;;
63379;SDS011;53160;55.014;73.156;2022-10-16T06:41:19;11.50;;;10.75;;
63379;SDS011;53160;55.014;73.156;2022-10-16T06:43:45;9.50;;;8.75;;
63379;SDS011;53160;55.014;73.156;2022-10-16T06:46:12;10.50;;;10.00;;
63379;SDS011;53160;55.014;73.156;2022-10-16T06:48:39;9.00;;;9.00;;
63379;SDS011;53160;55.014;73.156;2022-10-16T06:51:07;7.25;;;6.00;;
63379;SDS011;53160;55.014;73.156;2022-10-16T06:53:41;8.00;;;7.25;;
63379;SDS011;53160;55.014;73.156;2022-10-16T06:56:10;7.75;;;6.25;;
63379;SDS011;53160;55.014;73.156;2022-10-16T06:58:41;10.50;;;9.50;;
63379;SDS011;53160;55.014;73.156;2022-10-16T07:01:09;13.00;;;12.75;;
63379;SDS011;53160;55.014;73.156;2022-10-16T07:03:36;20.50;;;20.00;;
63379;SDS011;53160;55.014;73.156;2022-10-16T07:06:04;20.00;;;18.60;;
63379;SDS011;53160;55.014;73.156;2022-10-16T07:08:41;15.50;;;14.75;;
63379;SDS011;53160;55.014;73.156;2022-10-16T07:11:13;11.50;;;11.50;;
63379;SDS011;53160;55.014;73.156;2022-10-16T07:13:40;11.75;;;11.00;;
63379;SDS011;53160;55.014;73.156;2022-10-16T07:16:15;15.00;;;13.25;;
63379;SDS011;53160;55.014;73.156;2022-10-16T07:18:42;13.75;;;12.75;;
63379;SDS011;53160;55.014;73.156;2022-10-16T07:21:15;11.00;;;11.00;;
63379;SDS011;53160;55.014;73.156;2022-10-16T07:23:50;16.25;;;14.00;;
63379;SDS011;53160;55.014;73.156;2022-10-16T07:26:16;15.00;;;15.00;;
63379;SDS011;53160;55.014;73.156;2022-10-16T07:28:43;17.80;;;17.80;;
63379;SDS011;53160;55.014;73.156;2022-10-16T07:31:10;20.20;;;18.80;;
63379;SDS011;53160;55.014;73.156;2022-10-16T07:33:37;17.20;;;15.80;;
63379;SDS011;53160;55.014;73.156;2022-10-16T07:36:08;20.40;;;19.40;;
63379;SDS011;53160;55.014;73.156;2022-10-16T07:38:34;12.40;;;12.00;;
63379;SDS011;53160;55.014;73.156;2022-10-16T07:41:01;20.40;;;19.80;;
63379;SDS011;53160;55.014;73.156;2022-10-16T07:43:28;16.75;;;15.75;;
63379;SDS011;53160;55.014;73.156;2022-10-16T07:45:54;14.20;;;14.20;;
63379;SDS011;53160;55.014;73.156;2022-10-16T07:48:21;13.75;;;12.50;;
63379;SDS011;53160;55.014;73.156;2022-10-16T07:50:47;14.50;;;13.00;;
63379;SDS011;53160;55.014;73.156;2022-10-16T07:53:18;19.75;;;18.25;;
63379;SDS011;53160;55.014;73.156;2022-10-16T07:55:47;17.75;;;16.75;;
63379;SDS011;53160;55.014;73.156;2022-10-16T07:58:13;13.75;;;13.75;;
63379;SDS011;53160;55.014;73.156;2022-10-16T08:00:39;16.75;;;15.75;;
63379;SDS011;53160;55.014;73.156;2022-10-16T08:03:16;8.00;;;7.00;;
63379;SDS011;53160;55.014;73.156;2022-10-16T08:05:42;7.75;;;6.00;;
63379;SDS011;53160;55.014;73.156;2022-10-16T08:08:11;8.00;;;7.50;;
63379;SDS011;53160;55.014;73.156;2022-10-16T08:10:43;5.25;;;5.25;;
63379;SDS011;53160;55.014;73.156;2022-10-16T08:13:16;6.50;;;6.00;;
63379;SDS011;53160;55.014;73.156;2022-10-16T08:15:43;8.50;;;8.00;;
63379;SDS011;53160;55.014;73.156;2022-10-16T08:18:09;8.50;;;7.75;;
63379;SDS011;53160;55.014;73.156;2022-10-16T08:20:36;7.00;;;7.00;;
63379;SDS011;53160;55.014;73.156;2022-10-16T08:23:07;7.33;;;7.00;;
63379;SDS011;53160;55.014;73.156;2022-10-16T08:25:36;4.75;;;4.75;;
63379;SDS011;53160;55.014;73.156;2022-10-16T08:28:07;7.75;;;6.00;;
63379;SDS011;53160;55.014;73.156;2022-10-16T08:30:33;3.00;;;3.00;;
63379;SDS011;53160;55.014;73.156;2022-10-16T08:33:00;5.75;;;5.75;;
63379;SDS011;53160;55.014;73.156;2022-10-16T08:35:26;6.00;;;6.00;;
63379;SDS011;53160;55.014;73.156;2022-10-16T08:37:52;3.00;;;2.75;;
63379;SDS011;53160;55.014;73.156;2022-10-16T08:40:29;6.75;;;6.00;;
63379;SDS011;53160;55.014;73.156;2022-10-16T08:50:52;4.75;;;4.75;;
63379;SDS011;53160;55.014;73.156;2022-10-16T08:53:28;5.50;;;5.50;;
63379;SDS011;53160;55.014;73.156;2022-10-16T08:55:55;5.25;;;5.25;;
63379;SDS011;53160;55.014;73.156;2022-10-16T08:58:25;6.00;;;6.00;;
63379;SDS011;53160;55.014;73.156;2022-10-16T09:01:03;5.25;;;4.50;;
63379;SDS011;53160;55.014;73.156;2022-10-16T09:16:38;5.50;;;5.50;;
63379;SDS011;53160;55.014;73.156;2022-10-16T09:19:10;7.50;;;7.50;;
63379;SDS011;53160;55.014;73.156;2022-10-16T09:21:40;4.50;;;4.00;;
63379;SDS011;53160;55.014;73.156;2022-10-16T09:24:17;7.25;;;7.25;;
63379;SDS011;53160;55.014;73.156;2022-10-16T09:26:44;11.50;;;10.75;;
63379;SDS011;53160;55.014;73.156;2022-10-16T09:29:14;14.25;;;13.00;;
63379;SDS011;53160;55.014;73.156;2022-10-16T09:31:44;12.00;;;10.50;;
63379;SDS011;53160;55.014;73.156;2022-10-16T09:34:32;37.20;;;34.00;;
63379;SDS011;53160;55.014;73.156;2022-10-16T09:37:09;60.40;;;45.40;;
63379;SDS011;53160;55.014;73.156;2022-10-16T09:39:51;51.40;;;40.00;;
63379;SDS011;53160;55.014;73.156;2022-10-16T09:42:18;33.60;;;29.80;;
63379;SDS011;53160;55.014;73.156;2022-10-16T09:44:49;32.00;;;28.60;;
63379;SDS011;53160;55.014;73.156;2022-10-16T09:47:18;27.40;;;25.80;;
63379;SDS011;53160;55.014;73.156;2022-10-16T09:49:56;16.50;;;15.00;;
63379;SDS011;53160;55.014;73.156;2022-10-16T09:52:23;19.25;;;17.75;;
63379;SDS011;53160;55.014;73.156;2022-10-16T09:54:56;16.75;;;14.50;;
63379;SDS011;53160;55.014;73.156;2022-10-16T09:57:22;15.25;;;12.75;;
63379;SDS011;53160;55.014;73.156;2022-10-16T09:59:55;10.00;;;9.75;;
63379;SDS011;53160;55.014;73.156;2022-10-16T10:02:34;8.75;;;8.75;;
63379;SDS011;53160;55.014;73.156;2022-10-16T10:05:00;9.25;;;8.00;;
63379;SDS011;53160;55.014;73.156;2022-10-16T10:07:29;9.50;;;9.25;;
63379;SDS011;53160;55.014;73.156;2022-10-16T10:09:59;9.50;;;9.00;;
63379;SDS011;53160;55.014;73.156;2022-10-16T10:12:27;9.50;;;9.50;;
63379;SDS011;53160;55.014;73.156;2022-10-16T10:14:57;26.60;;;25.20;;
63379;SDS011;53160;55.014;73.156;2022-10-16T10:17:24;24.20;;;21.60;;
63379;SDS011;53160;55.014;73.156;2022-10-16T10:19:58;30.60;;;29.40;;
63379;SDS011;53160;55.014;73.156;2022-10-16T10:22:42;32.20;;;28.00;;
63379;SDS011;53160;55.014;73.156;2022-10-16T10:38:16;15.50;;;14.50;;
63379;SDS011;53160;55.014;73.156;2022-10-16T10:40:49;9.25;;;8.50;;
63379;SDS011;53160;55.014;73.156;2022-10-16T10:43:25;14.25;;;14.00;;
63379;SDS011;53160;55.014;73.156;2022-10-16T10:46:00;11.25;;;10.75;;
63379;SDS011;53160;55.014;73.156;2022-10-16T10:53:28;15.00;;;14.50;;
63379;SDS011;53160;55.014;73.156;2022-10-16T10:59:06;14.00;;;14.00;;
63379;SDS011;53160;55.014;73.156;2022-10-16T11:01:40;35.00;;;32.20;;
63379;SDS011;53160;55.014;73.156;2022-10-16T11:06:51;60.60;;;48.60;;
63379;SDS011;53160;55.014;73.156;2022-10-16T11:11:52;60.80;;;47.00;;
63379;SDS011;53160;55.014;73.156;2022-10-16T11:16:54;29.40;;;28.40;;
63379;SDS011;53160;55.014;73.156;2022-10-16T11:22:07;20.80;;;20.00;;
63379;SDS011;53160;55.014;73.156;2022-10-16T11:27:03;24.00;;;21.60;;
63379;SDS011;53160;55.014;73.156;2022-10-16T11:29:30;26.20;;;25.00;;
63379;SDS011;53160;55.014;73.156;2022-10-16T11:32:19;26.60;;;26.60;;
63379;SDS011;53160;55.014;73.156;2022-10-16T11:34:57;87.40;;;66.80;;
63379;SDS011;53160;55.014;73.156;2022-10-16T11:37:25;186.00;;;153.00;;
63379;SDS011;53160;55.014;73.156;2022-10-16T11:39:53;122.25;;;103.25;;
63379;SDS011;53160;55.014;73.156;2022-10-16T11:42:26;80.40;;;65.40;;
63379;SDS011;53160;55.014;73.156;2022-10-16T11:47:43;39.80;;;34.60;;
63379;SDS011;53160;55.014;73.156;2022-10-16T11:55:42;42.60;;;35.40;;
63379;SDS011;53160;55.014;73.156;2022-10-16T12:06:31;37.40;;;33.40;;
63379;SDS011;53160;55.014;73.156;2022-10-16T12:09:00;41.80;;;33.80;;
63379;SDS011;53160;55.014;73.156;2022-10-16T12:11:34;63.40;;;49.80;;
63379;SDS011;53160;55.014;73.156;2022-10-16T12:14:05;71.40;;;53.00;;
63379;SDS011;53160;55.014;73.156;2022-10-16T12:16:33;54.40;;;43.80;;
63379;SDS011;53160;55.014;73.156;2022-10-16T12:19:07;50.00;;;40.80;;
63379;SDS011;53160;55.014;73.156;2022-10-16T12:21:36;50.60;;;41.40;;
63379;SDS011;53160;55.014;73.156;2022-10-16T12:24:03;69.20;;;53.20;;
63379;SDS011;53160;55.014;73.156;2022-10-16T12:26:38;69.00;;;53.00;;
63379;SDS011;53160;55.014;73.156;2022-10-16T12:29:14;64.80;;;51.00;;
63379;SDS011;53160;55.014;73.156;2022-10-16T12:31:46;57.80;;;47.20;;
63379;SDS011;53160;55.014;73.156;2022-10-16T12:34:14;70.60;;;55.00;;
63379;SDS011;53160;55.014;73.156;2022-10-16T12:36:46;61.40;;;48.00;;
63379;SDS011;53160;55.014;73.156;2022-10-16T12:39:20;62.60;;;49.80;;
63379;SDS011;53160;55.014;73.156;2022-10-16T12:41:47;51.40;;;42.00;;
63379;SDS011;53160;55.014;73.156;2022-10-16T12:44:25;36.00;;;32.00;;
63379;SDS011;53160;55.014;73.156;2022-10-16T12:47:18;29.40;;;28.40;;
63379;SDS011;53160;55.014;73.156;2022-10-16T12:49:48;20.80;;;18.20;;
63379;SDS011;53160;55.014;73.156;2022-10-16T12:54:59;24.20;;;22.40;;
63379;SDS011;53160;55.014;73.156;2022-10-16T12:57:30;28.00;;;25.60;;
63379;SDS011;53160;55.014;73.156;2022-10-16T13:10:35;22.20;;;20.00;;
63379;SDS011;53160;55.014;73.156;2022-10-16T13:23:38;23.00;;;22.00;;
63379;SDS011;53160;55.014;73.156;2022-10-16T13:28:34;33.40;;;28.40;;
63379;SDS011;53160;55.014;73.156;2022-10-16T13:31:01;29.20;;;25.80;;
63379;SDS011;53160;55.014;73.156;2022-10-16T13:35:55;32.80;;;28.00;;
63379;SDS011;53160;55.014;73.156;2022-10-16T13:38:26;26.40;;;24.80;;
63379;SDS011;53160;55.014;73.156;2022-10-16T13:41:19;24.40;;;22.40;;
63379;SDS011;53160;55.014;73.156;2022-10-16T13:43:49;30.80;;;26.20;;
63379;SDS011;53160;55.014;73.156;2022-10-16T13:46:23;27.40;;;23.80;;
63379;SDS011;53160;55.014;73.156;2022-10-16T13:52:03;30.80;;;29.40;;
63379;SDS011;53160;55.014;73.156;2022-10-16T13:54:30;28.20;;;25.00;;
63379;SDS011;53160;55.014;73.156;2022-10-16T13:57:04;27.60;;;25.80;;
63379;SDS011;53160;55.014;73.156;2022-10-16T13:59:33;35.60;;;31.80;;
63379;SDS011;53160;55.014;73.156;2022-10-16T14:02:00;38.20;;;33.40;;
63379;SDS011;53160;55.014;73.156;2022-10-16T14:04:31;35.60;;;32.40;;
63379;SDS011;53160;55.014;73.156;2022-10-16T14:07:14;37.60;;;33.00;;
63379;SDS011;53160;55.014;73.156;2022-10-16T14:09:42;37.00;;;32.60;;
63379;SDS011;53160;55.014;73.156;2022-10-16T14:12:10;38.40;;;32.20;;
63379;SDS011;53160;55.014;73.156;2022-10-16T14:14:41;33.60;;;27.40;;
63379;SDS011;53160;55.014;73.156;2022-10-16T14:20:11;35.80;;;31.00;;
63379;SDS011;53160;55.014;73.156;2022-10-16T14:22:40;45.40;;;36.20;;
63379;SDS011;53160;55.014;73.156;2022-10-16T14:27:45;49.00;;;38.80;;
63379;SDS011;53160;55.014;73.156;2022-10-16T14:30:12;51.80;;;41.00;;
63379;SDS011;53160;55.014;73.156;2022-10-16T14:32:54;44.20;;;38.20;;
63379;SDS011;53160;55.014;73.156;2022-10-16T14:35:35;41.20;;;35.40;;
63379;SDS011;53160;55.014;73.156;2022-10-16T14:38:02;38.80;;;34.60;;
63379;SDS011;53160;55.014;73.156;2022-10-16T14:40:32;47.60;;;38.80;;
63379;SDS011;53160;55.014;73.156;2022-10-16T14:42:58;47.60;;;40.80;;
63379;SDS011;53160;55.014;73.156;2022-10-16T14:45:26;49.20;;;41.60;;
63379;SDS011;53160;55.014;73.156;2022-10-16T14:47:57;47.60;;;37.00;;
63379;SDS011;53160;55.014;73.156;2022-10-16T14:50:23;36.20;;;31.00;;
63379;SDS011;53160;55.014;73.156;2022-10-16T14:53:00;44.80;;;39.80;;
63379;SDS011;53160;55.014;73.156;2022-10-16T14:55:26;46.20;;;39.00;;
63379;SDS011;53160;55.014;73.156;2022-10-16T14:57:52;44.40;;;38.20;;
63379;SDS011;53160;55.014;73.156;2022-10-16T15:00:19;47.60;;;39.60;;
63379;SDS011;53160;55.014;73.156;2022-10-16T15:02:47;51.20;;;42.40;;
63379;SDS011;53160;55.014;73.156;2022-10-16T15:07:43;53.20;;;43.00;;
63379;SDS011;53160;55.014;73.156;2022-10-16T15:10:10;49.80;;;40.00;;
63379;SDS011;53160;55.014;73.156;2022-10-16T15:12:36;39.60;;;34.40;;
63379;SDS011;53160;55.014;73.156;2022-10-16T15:15:10;55.00;;;44.20;;
63379;SDS011;53160;55.014;73.156;2022-10-16T15:17:41;55.40;;;44.20;;
63379;SDS011;53160;55.014;73.156;2022-10-16T15:20:08;63.60;;;49.60;;
63379;SDS011;53160;55.014;73.156;2022-10-16T15:22:34;59.60;;;47.60;;
63379;SDS011;53160;55.014;73.156;2022-10-16T15:25:00;63.00;;;50.00;;
63379;SDS011;53160;55.014;73.156;2022-10-16T15:27:35;67.00;;;52.60;;
63379;SDS011;53160;55.014;73.156;2022-10-16T15:30:05;56.40;;;46.80;;
63379;SDS011;53160;55.014;73.156;2022-10-16T15:32:32;67.80;;;54.20;;
63379;SDS011;53160;55.014;73.156;2022-10-16T15:34:58;59.80;;;48.20;;
63379;SDS011;53160;55.014;73.156;2022-10-16T15:37:25;27.80;;;26.60;;
63379;SDS011;53160;55.014;73.156;2022-10-16T15:39:51;38.80;;;35.00;;
63379;SDS011;53160;55.014;73.156;2022-10-16T15:42:28;19.60;;;18.60;;
63379;SDS011;53160;55.014;73.156;2022-10-16T15:44:54;12.80;;;12.00;;
63379;SDS011;53160;55.014;73.156;2022-10-16T15:47:20;10.50;;;9.75;;
63379;SDS011;53160;55.014;73.156;2022-10-16T15:49:46;7.00;;;7.00;;
63379;SDS011;53160;55.014;73.156;2022-10-16T15:52:12;7.50;;;7.25;;
63379;SDS011;53160;55.014;73.156;2022-10-16T15:54:38;7.25;;;6.50;;
63379;SDS011;53160;55.014;73.156;2022-10-16T15:57:14;6.00;;;6.00;;
63379;SDS011;53160;55.014;73.156;2022-10-16T15:59:50;7.00;;;6.50;;
63379;SDS011;53160;55.014;73.156;2022-10-16T16:02:16;7.25;;;7.00;;
63379;SDS011;53160;55.014;73.156;2022-10-16T16:04:47;7.50;;;7.00;;
63379;SDS011;53160;55.014;73.156;2022-10-16T16:07:23;7.00;;;7.00;;
63379;SDS011;53160;55.014;73.156;2022-10-16T16:09:49;6.67;;;6.67;;
63379;SDS011;53160;55.014;73.156;2022-10-16T16:12:16;7.00;;;7.00;;
63379;SDS011;53160;55.014;73.156;2022-10-16T16:14:42;7.25;;;7.00;;
63379;SDS011;53160;55.014;73.156;2022-10-16T16:17:11;9.25;;;9.25;;
63379;SDS011;53160;55.014;73.156;2022-10-16T16:19:38;6.25;;;5.50;;
63379;SDS011;53160;55.014;73.156;2022-10-16T16:22:04;6.00;;;6.00;;
63379;SDS011;53160;55.014;73.156;2022-10-16T16:24:31;4.00;;;3.75;;
63379;SDS011;53160;55.014;73.156;2022-10-16T16:27:01;4.50;;;4.00;;
63379;SDS011;53160;55.014;73.156;2022-10-16T16:29:27;4.50;;;4.50;;
63379;SDS011;53160;55.014;73.156;2022-10-16T16:31:53;7.00;;;6.25;;